createdAt,value
2018-02-18T00:00:10.338Z,15.82
2018-02-18T00:02:39.340Z,16.65
2018-02-18T00:05:07.737Z,18.77
2018-02-18T00:07:38.376Z,15.85
2018-02-18T00:10:07.008Z,18.67
2018-02-18T00:12:36.233Z,18.15
2018-02-18T00:15:08.395Z,21.50
2018-02-18T00:17:37.404Z,21.33
2018-02-18T00:20:05.694Z,22.30
2018-02-18T00:22:35.377Z,19.00
2018-02-18T00:25:04.967Z,18.98
2018-02-18T00:27:35.824Z,19.25
2018-02-18T00:30:04.529Z,16.67
2018-02-18T00:32:32.751Z,21.08
2018-02-18T00:35:01.035Z,21.60
2018-02-18T00:37:30.244Z,19.00
2018-02-18T00:39:59.847Z,16.73
2018-02-18T00:42:28.376Z,15.93
2018-02-18T00:44:57.728Z,16.45
2018-02-18T00:47:26.762Z,15.45
2018-02-18T00:49:54.997Z,18.80
2018-02-18T00:52:23.384Z,19.62
2018-02-18T00:54:53.130Z,22.87
2018-02-18T00:57:23.184Z,22.35
2018-02-18T00:59:52.137Z,25.10
2018-02-18T01:02:21.504Z,23.87
2018-02-18T01:04:49.740Z,26.48
2018-02-18T01:07:19.011Z,24.17
2018-02-18T01:09:48.387Z,23.23
2018-02-18T01:12:16.608Z,23.95
2018-02-18T01:14:46.680Z,24.77
2018-02-18T01:17:14.927Z,25.33
2018-02-18T01:19:43.153Z,23.75
2018-02-18T01:22:12.588Z,25.65
2018-02-18T01:24:42.360Z,24.17
2018-02-18T01:27:10.584Z,24.17
2018-02-18T01:29:39.668Z,24.80
2018-02-18T01:32:08.662Z,23.67
2018-02-18T01:34:37.664Z,23.40
2018-02-18T01:37:06.045Z,26.20
2018-02-18T01:39:35.044Z,21.80
2018-02-18T01:42:03.272Z,22.62
2018-02-18T01:44:31.820Z,23.30
2018-02-18T01:47:01.566Z,26.05
2018-02-18T01:49:29.825Z,22.35
2018-02-18T01:51:58.480Z,20.27
2018-02-18T01:54:26.755Z,21.65
2018-02-18T01:56:55.771Z,15.60
2018-02-18T01:59:24.923Z,16.83
2018-02-18T02:01:53.161Z,17.00
2018-02-18T02:04:22.152Z,15.85
2018-02-18T02:06:50.529Z,19.58
2018-02-18T02:09:20.269Z,16.25
2018-02-18T02:11:48.504Z,16.55
2018-02-18T02:14:18.001Z,16.25
2018-02-18T02:16:47.584Z,16.27
2018-02-18T02:19:15.704Z,15.80
2018-02-18T02:21:44.010Z,18.90
2018-02-18T02:24:13.764Z,18.00
2018-02-18T02:26:43.352Z,19.10
2018-02-18T02:29:11.520Z,19.50
2018-02-18T02:31:39.941Z,18.10
2018-02-18T02:34:08.176Z,16.98
2018-02-18T02:36:37.020Z,18.60
2018-02-18T02:39:05.648Z,20.35
2018-02-18T02:41:33.876Z,19.20
2018-02-18T02:44:02.285Z,20.20
2018-02-18T02:46:30.531Z,18.37
2018-02-18T02:48:59.912Z,19.30
2018-02-18T02:51:29.210Z,19.15
2018-02-18T02:53:58.212Z,19.37
2018-02-18T02:56:26.849Z,18.70
2018-02-18T02:58:56.979Z,19.42
2018-02-18T03:01:25.233Z,13.70
2018-02-18T03:03:53.460Z,18.42
2018-02-18T03:06:24.249Z,14.38
2018-02-18T03:08:53.105Z,13.07
2018-02-18T03:11:22.696Z,13.20
2018-02-18T03:13:51.584Z,11.82
2018-02-18T03:16:21.328Z,13.70
2018-02-18T03:18:50.939Z,13.02
2018-02-18T03:21:20.257Z,12.80
2018-02-18T03:23:48.489Z,13.35
2018-02-18T03:26:18.071Z,12.32
2018-02-18T03:28:47.032Z,13.75
2018-02-18T03:31:16.620Z,12.07
2018-02-18T03:33:45.666Z,12.57
2018-02-18T03:36:15.303Z,13.02
2018-02-18T03:38:44.332Z,14.63
2018-02-18T03:41:12.553Z,14.10
2018-02-18T03:43:41.256Z,13.15
2018-02-18T03:46:10.619Z,15.55
2018-02-18T03:48:38.856Z,14.23
2018-02-18T03:51:07.225Z,20.45
2018-02-18T03:53:35.453Z,15.27
2018-02-18T03:56:03.684Z,16.48
2018-02-18T03:58:33.324Z,16.33
2018-02-18T04:01:02.911Z,17.52
2018-02-18T04:03:31.434Z,16.87
2018-02-18T04:05:59.985Z,16.52
2018-02-18T04:08:28.233Z,18.05
2018-02-18T04:10:56.481Z,21.62
2018-02-18T04:13:25.735Z,22.10
2018-02-18T04:15:53.960Z,18.90
2018-02-18T04:18:22.196Z,18.70
2018-02-18T04:20:50.512Z,23.75
2018-02-18T04:23:20.253Z,23.50
2018-02-18T04:25:48.484Z,23.58
2018-02-18T04:28:17.321Z,23.15
2018-02-18T04:30:45.561Z,22.13
2018-02-18T04:33:14.953Z,21.70
2018-02-18T04:35:44.524Z,20.55
2018-02-18T04:38:13.154Z,23.08
2018-02-18T04:40:41.384Z,24.05
2018-02-18T04:43:09.937Z,24.90
2018-02-18T04:45:38.160Z,21.23
2018-02-18T04:48:06.392Z,24.67
2018-02-18T04:50:36.758Z,21.35
2018-02-18T04:53:05.760Z,21.25
2018-02-18T04:55:34.388Z,23.40
2018-02-18T04:58:02.925Z,19.50
2018-02-18T05:00:31.916Z,21.65
2018-02-18T05:03:00.168Z,24.58
2018-02-18T05:05:30.726Z,25.42
2018-02-18T05:07:58.840Z,23.00
2018-02-18T05:10:28.435Z,22.45
2018-02-18T05:12:57.654Z,25.62
2018-02-18T05:15:25.894Z,21.98
2018-02-18T05:17:54.891Z,26.80
2018-02-18T05:20:24.330Z,24.30
2018-02-18T05:22:53.695Z,24.08
2018-02-18T05:25:21.920Z,25.20
2018-02-18T05:27:51.984Z,28.25
2018-02-18T05:30:21.224Z,27.02
2018-02-18T05:32:49.460Z,25.45
2018-02-18T05:35:18.412Z,30.15
2018-02-18T05:37:47.984Z,25.67
2018-02-18T05:40:17.563Z,25.33
2018-02-18T05:42:47.244Z,25.83
2018-02-18T05:45:16.130Z,27.80
2018-02-18T05:47:45.733Z,28.38
2018-02-18T05:50:14.575Z,24.52
2018-02-18T05:52:43.568Z,25.62
2018-02-18T05:55:13.310Z,34.80
2018-02-18T06:00:15.804Z,24.90
2018-02-18T06:02:44.812Z,27.90
2018-02-18T06:05:13.042Z,28.95
2018-02-18T06:07:41.600Z,24.95
2018-02-18T06:10:10.968Z,26.73
2018-02-18T06:12:39.200Z,28.12
2018-02-18T06:15:08.724Z,32.05
2018-02-18T06:17:37.352Z,30.08
2018-02-18T06:20:05.981Z,35.03
2018-02-18T06:25:09.044Z,27.17
2018-02-18T06:27:38.040Z,30.45
2018-02-18T06:30:07.618Z,29.75
2018-02-18T06:32:36.914Z,33.80
2018-02-18T06:35:06.285Z,33.30
2018-02-18T06:37:34.520Z,31.20
2018-02-18T06:40:03.888Z,27.05
2018-02-18T06:42:32.512Z,30.92
2018-02-18T06:45:00.757Z,31.25
2018-02-18T06:47:29.327Z,33.58
2018-02-18T06:49:57.572Z,29.60
2018-02-18T06:52:25.817Z,33.13
2018-02-18T06:54:54.405Z,34.03
2018-02-18T06:57:23.984Z,35.28
2018-02-18T06:59:52.088Z,31.77
2018-02-18T07:02:20.535Z,31.48
2018-02-18T07:04:49.528Z,31.33
2018-02-18T07:07:17.752Z,31.52
2018-02-18T07:12:21.259Z,32.88
2018-02-18T07:14:49.888Z,33.30
2018-02-18T07:17:18.892Z,31.33
2018-02-18T07:19:49.203Z,31.67
2018-02-18T07:22:18.200Z,30.40
2018-02-18T07:24:46.432Z,30.65
2018-02-18T07:27:15.757Z,26.90
2018-02-18T07:29:44.006Z,26.77
2018-02-18T07:32:13.380Z,29.45
2018-02-18T07:34:41.768Z,35.78
2018-02-18T07:37:11.355Z,33.08
2018-02-18T07:39:40.228Z,30.45
2018-02-18T07:42:10.912Z,27.15
2018-02-18T07:44:39.931Z,25.58
2018-02-18T07:47:08.164Z,29.52
2018-02-18T07:49:37.444Z,31.62
2018-02-18T07:52:05.676Z,37.55
2018-02-18T07:54:33.908Z,30.50
2018-02-18T07:57:03.156Z,33.90
2018-02-18T07:59:32.148Z,38.22
2018-02-18T08:02:00.408Z,30.83
2018-02-18T08:04:28.897Z,28.75
2018-02-18T08:06:57.144Z,29.45
2018-02-18T08:09:25.389Z,28.80
2018-02-18T08:11:53.927Z,30.62
2018-02-18T08:14:22.556Z,27.13
2018-02-18T08:16:51.187Z,28.15
2018-02-18T08:19:19.624Z,28.77
2018-02-18T08:21:47.862Z,25.80
2018-02-18T08:24:16.092Z,25.87
2018-02-18T08:26:44.540Z,29.10
2018-02-18T08:29:13.538Z,30.90
2018-02-18T08:31:42.536Z,30.73
2018-02-18T08:34:12.500Z,31.93
2018-02-18T08:36:41.500Z,26.33
2018-02-18T08:39:09.732Z,25.70
2018-02-18T08:41:38.230Z,27.63
2018-02-18T08:44:06.592Z,28.67
2018-02-18T08:46:34.824Z,26.40
2018-02-18T08:49:05.280Z,28.00
2018-02-18T08:51:34.272Z,28.37
2018-02-18T08:54:02.895Z,25.83
2018-02-18T08:56:31.280Z,26.07
2018-02-18T08:58:59.528Z,27.73
2018-02-18T09:01:27.777Z,30.07
2018-02-18T09:03:56.256Z,25.67
2018-02-18T09:06:25.456Z,25.83
2018-02-18T09:08:54.460Z,26.40
2018-02-18T09:11:23.380Z,24.70
2018-02-18T09:13:52.381Z,24.67
2018-02-18T09:16:21.384Z,26.50
2018-02-18T09:18:49.832Z,33.77
2018-02-18T09:21:18.828Z,27.53
2018-02-18T09:23:47.828Z,29.33
2018-02-18T09:26:16.320Z,22.97
2018-02-18T09:28:44.604Z,23.43
2018-02-18T09:31:12.981Z,22.70
2018-02-18T09:33:41.985Z,21.27
2018-02-18T09:36:10.282Z,21.43
2018-02-18T09:38:38.512Z,20.77
2018-02-18T09:41:07.219Z,18.90
2018-02-18T09:43:36.656Z,22.90
2018-02-18T09:46:05.084Z,21.60
2018-02-18T09:48:34.572Z,21.50
2018-02-18T09:51:03.945Z,22.43
2018-02-18T09:53:32.176Z,21.40
2018-02-18T09:56:00.721Z,20.63
2018-02-18T09:58:29.498Z,18.83
2018-02-18T10:00:57.741Z,19.60
2018-02-18T10:03:26.414Z,19.40
2018-02-18T10:05:54.602Z,20.30
2018-02-18T10:08:22.832Z,19.80
2018-02-18T10:10:52.115Z,20.67
2018-02-18T10:13:20.352Z,20.33
2018-02-18T10:15:48.980Z,18.87
2018-02-18T10:18:17.688Z,21.87
2018-02-18T10:20:46.316Z,18.70
2018-02-18T10:23:14.560Z,19.90
2018-02-18T10:25:44.165Z,20.20
2018-02-18T10:28:13.160Z,19.30
2018-02-18T10:30:41.787Z,20.53
2018-02-18T10:33:10.980Z,19.87
2018-02-18T10:35:39.976Z,18.23
2018-02-18T10:38:08.209Z,21.17
2018-02-18T10:40:37.833Z,19.70
2018-02-18T10:43:07.577Z,19.17
2018-02-18T10:45:36.196Z,22.60
2018-02-18T10:48:05.096Z,21.07
2018-02-18T10:50:34.093Z,20.20
2018-02-18T10:53:02.325Z,22.77
2018-02-18T10:55:30.932Z,19.90
2018-02-18T10:57:59.934Z,20.03
2018-02-18T11:00:28.950Z,23.33
2018-02-18T11:02:58.647Z,23.27
2018-02-18T11:05:26.892Z,19.87
2018-02-18T11:07:56.643Z,20.77
2018-02-18T11:10:25.289Z,22.07
2018-02-18T11:12:53.520Z,21.30
2018-02-18T11:15:21.753Z,21.70
2018-02-18T11:17:50.360Z,19.17
2018-02-18T11:20:18.597Z,21.50
2018-02-18T11:22:47.229Z,21.00
2018-02-18T11:25:16.082Z,21.60
2018-02-18T11:27:45.448Z,21.53
2018-02-18T11:30:13.681Z,22.70
2018-02-18T11:32:43.856Z,21.67
2018-02-18T11:35:13.315Z,20.37
2018-02-18T11:37:42.197Z,21.50
2018-02-18T11:40:10.797Z,21.27
2018-02-18T11:42:40.163Z,21.40
2018-02-18T11:45:08.397Z,23.17
2018-02-18T11:47:37.038Z,21.70
2018-02-18T11:50:06.739Z,20.60
2018-02-18T11:52:34.856Z,22.33
2018-02-18T11:55:04.920Z,21.43
2018-02-18T11:57:33.181Z,19.40
2018-02-18T12:00:01.424Z,19.70
2018-02-18T12:02:31.784Z,20.03
2018-02-18T12:05:01.043Z,19.87
2018-02-18T12:07:29.283Z,19.10
2018-02-18T12:09:58.657Z,21.20
2018-02-18T12:12:27.292Z,20.73
2018-02-18T12:14:56.316Z,18.00
2018-02-18T12:17:24.825Z,18.27
2018-02-18T12:19:54.192Z,20.13
2018-02-18T12:22:23.981Z,19.90
2018-02-18T12:24:52.400Z,17.13
2018-02-18T12:27:20.636Z,18.30
2018-02-18T12:29:48.860Z,19.00
2018-02-18T12:32:17.253Z,19.07
2018-02-18T12:34:46.269Z,21.30
2018-02-18T12:37:14.522Z,21.40
2018-02-18T12:39:45.151Z,20.60
2018-02-18T12:42:13.261Z,17.13
2018-02-18T12:44:41.491Z,18.90
2018-02-18T12:47:11.244Z,20.00
2018-02-18T12:49:40.989Z,19.30
2018-02-18T12:52:09.424Z,28.17
2018-02-18T12:57:12.132Z,19.17
2018-02-18T12:59:41.720Z,18.50
2018-02-18T13:02:10.600Z,18.20
2018-02-18T13:04:39.845Z,18.67
2018-02-18T13:07:08.130Z,17.50
2018-02-18T13:09:37.837Z,19.77
2018-02-18T13:12:07.481Z,18.20
2018-02-18T13:14:36.108Z,18.40
2018-02-18T13:17:04.340Z,18.80
2018-02-18T13:22:08.313Z,19.30
2018-02-18T13:24:36.548Z,18.77
2018-02-18T13:27:04.780Z,18.33
2018-02-18T13:29:35.360Z,20.60
2018-02-18T13:32:04.976Z,18.27
2018-02-18T13:34:33.212Z,17.33
2018-02-18T13:37:01.872Z,18.97
2018-02-18T13:39:30.112Z,19.40
2018-02-18T13:41:58.362Z,18.37
2018-02-18T13:44:27.701Z,18.93
2018-02-18T13:46:57.516Z,18.30
2018-02-18T13:49:26.580Z,19.33
2018-02-18T13:51:55.173Z,20.10
2018-02-18T13:54:24.332Z,19.93
2018-02-18T13:56:52.544Z,22.30
2018-02-18T13:59:22.736Z,20.00
2018-02-18T14:01:51.240Z,19.93
2018-02-18T14:04:20.464Z,19.83
2018-02-18T14:06:51.553Z,18.93
2018-02-18T14:09:21.011Z,17.07
2018-02-18T14:11:50.496Z,18.60
2018-02-18T14:14:19.916Z,19.00
2018-02-18T14:16:49.659Z,17.80
2018-02-18T14:19:17.891Z,18.37
2018-02-18T14:21:47.488Z,18.87
2018-02-18T14:24:17.229Z,19.77
2018-02-18T14:26:45.474Z,19.03
2018-02-18T14:29:14.054Z,19.27
2018-02-18T14:31:42.285Z,18.83
2018-02-18T14:34:10.515Z,20.43
2018-02-18T14:36:38.940Z,19.73
2018-02-18T14:39:07.940Z,16.23
2018-02-18T14:41:48.553Z,18.10
2018-02-18T14:44:28.877Z,18.10
2018-02-18T14:47:05.965Z,19.07
2018-02-18T14:49:46.231Z,19.23
2018-02-18T14:52:27.388Z,19.50
2018-02-18T14:55:21.751Z,19.97
2018-02-18T14:57:50.777Z,19.30
2018-02-18T15:00:19.013Z,19.50
2018-02-18T15:02:47.688Z,19.60
2018-02-18T15:05:17.272Z,20.37
2018-02-18T15:07:45.379Z,19.20
2018-02-18T15:10:14.551Z,18.47
2018-02-18T15:12:43.544Z,17.90
2018-02-18T15:15:11.789Z,18.83
2018-02-18T15:17:40.159Z,18.07
2018-02-18T15:20:09.909Z,20.27
2018-02-18T15:22:38.572Z,19.50
2018-02-18T15:25:07.440Z,18.97
2018-02-18T15:27:36.072Z,16.60
2018-02-18T15:30:04.321Z,16.47
2018-02-18T15:32:36.340Z,16.07
2018-02-18T15:35:04.690Z,16.50
2018-02-18T15:37:32.916Z,15.97
2018-02-18T15:40:01.562Z,15.63
2018-02-18T15:42:29.864Z,15.67
2018-02-18T15:44:58.888Z,16.20
2018-02-18T15:47:28.124Z,16.07
2018-02-18T15:49:57.529Z,14.73
2018-02-18T15:52:27.109Z,14.53
2018-02-18T15:54:56.012Z,15.50
2018-02-18T15:57:24.282Z,13.70
2018-02-18T15:59:54.020Z,15.50
2018-02-18T16:02:22.936Z,14.73
2018-02-18T16:04:51.936Z,13.60
2018-02-18T16:07:20.168Z,13.00
2018-02-18T16:09:49.080Z,14.00
2018-02-18T16:12:18.077Z,13.67
2018-02-18T16:14:46.704Z,13.63
2018-02-18T16:17:16.750Z,13.67
2018-02-18T16:19:46.484Z,12.40
2018-02-18T16:22:15.485Z,14.60
2018-02-18T16:24:46.525Z,13.73
2018-02-18T16:27:14.748Z,11.57
2018-02-18T16:29:43.756Z,14.50
2018-02-18T16:32:13.568Z,12.73
2018-02-18T16:34:42.932Z,15.30
2018-02-18T16:37:12.512Z,12.87
2018-02-18T16:39:41.708Z,11.60
2018-02-18T16:42:11.444Z,13.40
2018-02-18T16:44:41.044Z,11.73
2018-02-18T16:47:10.108Z,11.77
2018-02-18T16:49:39.848Z,12.30
2018-02-18T16:52:08.076Z,12.33
2018-02-18T16:54:37.059Z,11.97
2018-02-18T16:57:06.067Z,11.27
2018-02-18T16:59:35.064Z,11.33
2018-02-18T17:02:03.608Z,11.27
2018-02-18T17:04:32.625Z,10.70
2018-02-18T17:07:01.630Z,11.90
2018-02-18T17:09:31.282Z,12.10
2018-02-18T17:11:59.916Z,11.80
2018-02-18T17:14:28.916Z,12.77
2018-02-18T17:16:58.187Z,12.90
2018-02-18T17:19:27.564Z,13.03
2018-02-18T17:21:55.822Z,13.00
2018-02-18T17:24:25.903Z,13.03
2018-02-18T17:26:55.689Z,12.97
2018-02-18T17:29:23.916Z,14.07
2018-02-18T17:31:54.622Z,12.90
2018-02-18T17:34:23.864Z,14.17
2018-02-18T17:36:52.268Z,15.17
2018-02-18T17:39:21.484Z,16.13
2018-02-18T17:41:50.852Z,15.60
2018-02-18T17:44:19.091Z,14.47
2018-02-18T17:46:49.331Z,16.20
2018-02-18T17:49:18.701Z,15.40
2018-02-18T17:51:46.932Z,14.83
2018-02-18T17:54:15.476Z,14.77
2018-02-18T17:56:45.064Z,15.13
2018-02-18T17:59:13.168Z,15.80
2018-02-18T18:01:41.812Z,14.53
2018-02-18T18:04:11.177Z,17.73
2018-02-18T18:06:39.404Z,16.67
2018-02-18T18:09:08.160Z,16.40
2018-02-18T18:11:36.392Z,15.53
2018-02-18T18:14:05.763Z,15.47
2018-02-18T18:16:34.144Z,16.50
2018-02-18T18:19:02.786Z,14.80
2018-02-18T18:21:32.206Z,17.33
2018-02-18T18:24:02.198Z,17.73
2018-02-18T18:26:30.319Z,17.37
2018-02-18T18:28:58.575Z,17.30
2018-02-18T18:31:27.088Z,18.57
2018-02-18T18:33:55.336Z,17.63
2018-02-18T18:36:23.560Z,18.50
2018-02-18T18:38:53.073Z,19.00
2018-02-18T18:41:21.720Z,19.40
2018-02-18T18:43:51.457Z,20.77
2018-02-18T18:46:20.060Z,19.83
2018-02-18T19:09:31.233Z,18.93
2018-02-18T19:12:00.316Z,20.70
2018-02-18T19:14:28.643Z,18.90
2018-02-18T19:16:58.709Z,18.00
2018-02-18T19:19:26.955Z,19.60
2018-02-18T19:21:55.225Z,19.23
2018-02-18T19:24:24.543Z,19.73
2018-02-18T19:26:52.777Z,17.53
2018-02-18T19:29:21.012Z,21.07
2018-02-18T19:31:51.165Z,19.73
2018-02-18T19:34:20.160Z,19.63
2018-02-18T19:36:49.160Z,18.50
2018-02-18T19:39:45.100Z,20.20
2018-02-18T19:42:13.724Z,18.50
2018-02-18T19:44:41.956Z,23.20
2018-02-18T19:47:12.143Z,24.43
2018-02-18T19:49:40.244Z,22.20
2018-02-18T19:52:08.481Z,24.33
2018-02-18T19:54:37.348Z,25.60
2018-02-18T19:57:06.912Z,25.10
2018-02-18T19:59:35.024Z,26.83
2018-02-18T20:02:04.919Z,23.93
2018-02-18T20:04:34.536Z,27.30
2018-02-18T20:07:02.772Z,26.10
2018-02-18T20:09:31.364Z,24.03
2018-02-18T20:11:59.609Z,25.40
2018-02-18T20:14:27.848Z,23.77
2018-02-18T20:16:57.328Z,24.23
2018-02-18T20:19:25.575Z,30.00
2018-02-18T20:21:55.459Z,29.07
2018-02-18T20:24:23.920Z,28.03
2018-02-18T20:26:53.661Z,29.00
2018-02-18T20:29:22.284Z,30.50
2018-02-18T20:31:51.284Z,30.47
2018-02-18T20:34:20.652Z,30.07
2018-02-18T20:36:48.876Z,29.40
2018-02-18T20:39:17.508Z,51.43
2018-02-18T20:41:47.529Z,30.30
2018-02-18T20:44:17.288Z,27.37
2018-02-18T20:46:45.658Z,26.03
2018-02-18T20:49:14.658Z,26.57
2018-02-18T20:51:42.889Z,26.23
2018-02-18T20:54:11.445Z,26.47
2018-02-18T20:56:41.180Z,26.60
2018-02-18T20:59:10.938Z,29.70
2018-02-18T21:01:40.394Z,29.60
2018-02-18T21:04:09.971Z,28.73
2018-02-18T21:06:38.082Z,30.00
2018-02-18T21:11:40.660Z,25.30
2018-02-18T21:14:09.616Z,25.90
2018-02-18T21:16:37.843Z,26.80
2018-02-18T21:19:07.577Z,27.33
2018-02-18T21:21:37.160Z,25.20
2018-02-18T21:24:06.403Z,27.30
2018-02-18T21:26:36.276Z,27.60
2018-02-18T21:29:05.738Z,26.35
2018-02-18T21:31:34.608Z,30.50
2018-02-18T21:34:04.535Z,25.50
2018-02-18T21:36:33.039Z,25.37
2018-02-18T21:39:02.779Z,27.90
2018-02-18T21:41:32.025Z,27.53
2018-02-18T21:44:02.042Z,29.27
2018-02-18T21:46:30.153Z,25.08
2018-02-18T21:49:00.717Z,25.77
2018-02-18T21:51:29.356Z,26.60
2018-02-18T21:53:58.972Z,29.45
2018-02-18T21:56:28.821Z,27.57
2018-02-18T21:58:57.704Z,28.70
2018-02-18T22:01:26.716Z,27.97
2018-02-18T22:04:00.683Z,29.50
2018-02-18T22:06:30.284Z,26.93
2018-02-18T22:08:58.421Z,26.53
2018-02-18T22:11:27.127Z,31.13
2018-02-18T22:13:55.400Z,28.83
2018-02-18T22:16:24.714Z,29.87
2018-02-18T22:18:53.245Z,31.33
2018-02-18T22:21:21.476Z,26.70
2018-02-18T22:23:49.707Z,31.47
2018-02-18T22:26:18.361Z,31.03
2018-02-18T22:28:46.987Z,27.10
2018-02-18T22:31:15.232Z,27.83
2018-02-18T22:33:44.300Z,29.00
2018-02-18T22:36:13.880Z,30.60
2018-02-18T22:38:41.988Z,30.57
2018-02-18T22:41:10.356Z,26.27
2018-02-18T22:43:38.588Z,29.08
2018-02-18T22:46:07.265Z,27.90
2018-02-18T22:51:10.403Z,30.08
2018-02-18T22:53:38.647Z,28.25
2018-02-18T22:56:07.197Z,28.83
2018-02-18T22:58:36.567Z,27.27
2018-02-18T23:01:04.808Z,27.75
2018-02-18T23:03:33.750Z,28.87
2018-02-18T23:06:02.744Z,28.00
2018-02-18T23:08:30.989Z,29.33
2018-02-18T23:10:59.381Z,31.50
2018-02-18T23:13:27.628Z,33.30
2018-02-18T23:15:55.872Z,30.90
2018-02-18T23:18:25.734Z,31.25
2018-02-18T23:21:05.690Z,30.35
2018-02-18T23:23:35.064Z,30.92
2018-02-18T23:26:03.696Z,35.85
2018-02-18T23:28:31.940Z,31.23
2018-02-18T23:31:00.344Z,28.92
2018-02-18T23:33:29.945Z,33.75
2018-02-18T23:35:58.071Z,30.73
2018-02-18T23:38:26.942Z,31.12
2018-02-18T23:40:55.196Z,29.48
2018-02-18T23:43:23.428Z,26.50
2018-02-18T23:45:52.732Z,34.67
2018-02-18T23:48:21.348Z,30.70
2018-02-18T23:50:50.940Z,29.70
2018-02-18T23:53:19.968Z,29.45
2018-02-18T23:55:48.967Z,30.88
2018-02-18T23:58:17.963Z,30.90
